Terminal Aerodrome Forecast
Issued by NWS

Home | Current Version | Previous Version | Text Only | Print | Product List | Glossary On
Versions: 1 2 3 4 5 6 7 8 9 10 11 12 13 14 15 16 17 18 19 20 21
000
FTUS44 KLZK 242330
TAFHRO
TAF
KHRO 242330Z 2500/2524 VRB12G22KT 3SM TSRA FEW030 BKN050CB OVC070
     FM250200 19012G22KT P6SM SCT020 OVC050
     FM251200 25012G18KT P6SM VCSH OVC050 PROB30 2512/2518 5SM -SHRA
      BR BKN025
     FM251800 25009KT P6SM OVC050=

USA.gov is the U.S. government's official web portal to all federal, state and local government web resources and services.